sensor_id;sensor_type;location;lat;lon;timestamp;P1;durP1;ratioP1;P2;durP2;ratioP2
69183;SDS011;56291;53.960;27.550;2023-03-03T04:26:47;2.75;;;2.13;;
69183;SDS011;56291;53.960;27.550;2023-03-03T04:29:13;2.28;;;1.92;;
69183;SDS011;56291;53.960;27.550;2023-03-03T04:31:40;3.90;;;2.35;;
69183;SDS011;56291;53.960;27.550;2023-03-03T04:34:06;4.97;;;2.38;;
69183;SDS011;56291;53.960;27.550;2023-03-03T04:36:32;7.28;;;2.45;;
69183;SDS011;56291;53.960;27.550;2023-03-03T04:39:02;3.72;;;2.38;;
69183;SDS011;56291;53.960;27.550;2023-03-03T04:41:29;2.75;;;1.98;;
69183;SDS011;56291;53.960;27.550;2023-03-03T04:43:55;4.47;;;2.60;;
69183;SDS011;56291;53.960;27.550;2023-03-03T04:46:22;3.15;;;2.17;;
69183;SDS011;56291;53.960;27.550;2023-03-03T04:48:48;4.63;;;2.47;;
69183;SDS011;56291;53.960;27.550;2023-03-03T04:51:14;3.63;;;2.38;;
69183;SDS011;56291;53.960;27.550;2023-03-03T04:53:41;6.00;;;2.80;;
69183;SDS011;56291;53.960;27.550;2023-03-03T04:56:07;3.42;;;2.50;;
69183;SDS011;56291;53.960;27.550;2023-03-03T04:58:33;3.38;;;2.28;;
69183;SDS011;56291;53.960;27.550;2023-03-03T05:01:00;4.20;;;2.38;;
69183;SDS011;56291;53.960;27.550;2023-03-03T05:03:26;5.63;;;2.42;;
69183;SDS011;56291;53.960;27.550;2023-03-03T05:05:52;4.10;;;2.15;;
69183;SDS011;56291;53.960;27.550;2023-03-03T05:08:19;5.22;;;2.58;;
69183;SDS011;56291;53.960;27.550;2023-03-03T05:10:45;5.10;;;3.03;;
69183;SDS011;56291;53.960;27.550;2023-03-03T05:13:15;3.55;;;2.50;;
69183;SDS011;56291;53.960;27.550;2023-03-03T05:15:41;4.30;;;2.50;;
69183;SDS011;56291;53.960;27.550;2023-03-03T05:18:07;3.90;;;2.42;;
69183;SDS011;56291;53.960;27.550;2023-03-03T05:20:35;3.80;;;2.45;;
69183;SDS011;56291;53.960;27.550;2023-03-03T05:23:03;3.78;;;2.60;;
69183;SDS011;56291;53.960;27.550;2023-03-03T05:25:30;4.30;;;2.80;;
69183;SDS011;56291;53.960;27.550;2023-03-03T05:27:56;5.40;;;2.70;;
69183;SDS011;56291;53.960;27.550;2023-03-03T05:30:23;4.50;;;2.58;;
69183;SDS011;56291;53.960;27.550;2023-03-03T05:32:49;4.15;;;2.70;;
69183;SDS011;56291;53.960;27.550;2023-03-03T05:35:15;5.30;;;2.45;;
69183;SDS011;56291;53.960;27.550;2023-03-03T05:37:42;3.40;;;2.58;;
69183;SDS011;56291;53.960;27.550;2023-03-03T05:40:12;6.13;;;3.30;;
69183;SDS011;56291;53.960;27.550;2023-03-03T05:42:39;4.90;;;2.55;;
69183;SDS011;56291;53.960;27.550;2023-03-03T05:45:05;10.23;;;4.63;;
69183;SDS011;56291;53.960;27.550;2023-03-03T05:50:04;7.97;;;3.38;;
69183;SDS011;56291;53.960;27.550;2023-03-03T05:52:30;5.43;;;3.33;;
69183;SDS011;56291;53.960;27.550;2023-03-03T05:58:05;7.20;;;3.13;;
69183;SDS011;56291;53.960;27.550;2023-03-03T06:00:31;5.03;;;2.83;;
69183;SDS011;56291;53.960;27.550;2023-03-03T06:02:57;8.07;;;3.63;;
69183;SDS011;56291;53.960;27.550;2023-03-03T06:05:24;4.20;;;2.60;;
69183;SDS011;56291;53.960;27.550;2023-03-03T06:07:50;6.75;;;2.97;;
69183;SDS011;56291;53.960;27.550;2023-03-03T06:10:16;6.05;;;3.35;;
69183;SDS011;56291;53.960;27.550;2023-03-03T06:12:43;4.97;;;3.20;;
69183;SDS011;56291;53.960;27.550;2023-03-03T06:15:09;7.18;;;3.10;;
69183;SDS011;56291;53.960;27.550;2023-03-03T06:17:36;6.50;;;3.58;;
69183;SDS011;56291;53.960;27.550;2023-03-03T06:20:02;6.65;;;3.70;;
69183;SDS011;56291;53.960;27.550;2023-03-03T06:22:29;9.63;;;4.32;;
69183;SDS011;56291;53.960;27.550;2023-03-03T06:24:55;5.85;;;3.08;;
69183;SDS011;56291;53.960;27.550;2023-03-03T06:27:42;10.93;;;3.10;;
69183;SDS011;56291;53.960;27.550;2023-03-03T06:30:32;4.72;;;3.00;;
69183;SDS011;56291;53.960;27.550;2023-03-03T06:32:58;6.00;;;3.20;;
69183;SDS011;56291;53.960;27.550;2023-03-03T06:35:25;6.75;;;3.83;;
69183;SDS011;56291;53.960;27.550;2023-03-03T06:37:51;5.60;;;3.40;;
69183;SDS011;56291;53.960;27.550;2023-03-03T06:40:17;7.93;;;3.20;;
69183;SDS011;56291;53.960;27.550;2023-03-03T06:42:44;6.53;;;3.30;;
69183;SDS011;56291;53.960;27.550;2023-03-03T06:45:10;4.75;;;3.67;;
69183;SDS011;56291;53.960;27.550;2023-03-03T06:47:42;7.88;;;3.70;;
69183;SDS011;56291;53.960;27.550;2023-03-03T06:50:09;7.30;;;3.30;;
69183;SDS011;56291;53.960;27.550;2023-03-03T06:52:37;6.30;;;3.10;;
69183;SDS011;56291;53.960;27.550;2023-03-03T06:55:11;4.70;;;3.00;;
69183;SDS011;56291;53.960;27.550;2023-03-03T07:00:58;4.50;;;2.95;;
69183;SDS011;56291;53.960;27.550;2023-03-03T07:03:43;6.47;;;3.38;;
69183;SDS011;56291;53.960;27.550;2023-03-03T07:09:42;5.43;;;3.20;;
69183;SDS011;56291;53.960;27.550;2023-03-03T07:12:11;8.25;;;4.20;;
69183;SDS011;56291;53.960;27.550;2023-03-03T07:14:51;4.78;;;2.90;;
69183;SDS011;56291;53.960;27.550;2023-03-03T07:17:24;7.03;;;3.47;;
69183;SDS011;56291;53.960;27.550;2023-03-03T07:19:50;5.70;;;3.53;;
69183;SDS011;56291;53.960;27.550;2023-03-03T07:22:24;5.88;;;2.80;;
69183;SDS011;56291;53.960;27.550;2023-03-03T07:24:54;5.68;;;3.03;;
69183;SDS011;56291;53.960;27.550;2023-03-03T07:27:27;6.75;;;3.70;;
69183;SDS011;56291;53.960;27.550;2023-03-03T07:32:44;6.00;;;3.28;;
69183;SDS011;56291;53.960;27.550;2023-03-03T07:35:25;6.07;;;3.00;;
69183;SDS011;56291;53.960;27.550;2023-03-03T07:38:15;6.10;;;2.78;;
69183;SDS011;56291;53.960;27.550;2023-03-03T07:40:53;6.93;;;3.17;;
69183;SDS011;56291;53.960;27.550;2023-03-03T07:43:24;6.55;;;3.50;;
69183;SDS011;56291;53.960;27.550;2023-03-03T07:48:59;4.07;;;2.83;;
69183;SDS011;56291;53.960;27.550;2023-03-03T07:54:28;5.57;;;2.67;;
69183;SDS011;56291;53.960;27.550;2023-03-03T08:03:21;4.95;;;3.15;;
69183;SDS011;56291;53.960;27.550;2023-03-03T08:05:48;3.75;;;2.45;;
69183;SDS011;56291;53.960;27.550;2023-03-03T08:14:37;7.45;;;4.05;;
69183;SDS011;56291;53.960;27.550;2023-03-03T08:17:20;5.05;;;3.20;;
69183;SDS011;56291;53.960;27.550;2023-03-03T08:19:59;8.88;;;3.30;;
69183;SDS011;56291;53.960;27.550;2023-03-03T08:25:29;5.47;;;2.97;;
69183;SDS011;56291;53.960;27.550;2023-03-03T08:27:56;4.97;;;3.10;;
69183;SDS011;56291;53.960;27.550;2023-03-03T08:30:23;8.07;;;3.25;;
69183;SDS011;56291;53.960;27.550;2023-03-03T08:32:50;7.10;;;3.70;;
69183;SDS011;56291;53.960;27.550;2023-03-03T08:35:17;6.13;;;3.50;;
69183;SDS011;56291;53.960;27.550;2023-03-03T08:37:44;8.43;;;3.10;;
69183;SDS011;56291;53.960;27.550;2023-03-03T08:40:11;8.10;;;3.28;;
69183;SDS011;56291;53.960;27.550;2023-03-03T08:42:41;7.00;;;3.47;;
69183;SDS011;56291;53.960;27.550;2023-03-03T08:45:11;5.97;;;3.13;;
69183;SDS011;56291;53.960;27.550;2023-03-03T08:47:44;6.88;;;3.28;;
69183;SDS011;56291;53.960;27.550;2023-03-03T08:50:13;8.70;;;3.20;;
69183;SDS011;56291;53.960;27.550;2023-03-03T08:52:44;6.65;;;3.17;;
69183;SDS011;56291;53.960;27.550;2023-03-03T08:55:13;9.73;;;4.35;;
69183;SDS011;56291;53.960;27.550;2023-03-03T08:57:39;8.63;;;4.18;;
69183;SDS011;56291;53.960;27.550;2023-03-03T09:00:07;5.85;;;3.28;;
69183;SDS011;56291;53.960;27.550;2023-03-03T09:02:35;7.40;;;3.25;;
69183;SDS011;56291;53.960;27.550;2023-03-03T09:05:03;8.02;;;3.47;;
69183;SDS011;56291;53.960;27.550;2023-03-03T09:07:33;5.65;;;3.20;;
69183;SDS011;56291;53.960;27.550;2023-03-03T09:10:00;5.03;;;2.83;;
69183;SDS011;56291;53.960;27.550;2023-03-03T09:12:30;5.57;;;3.15;;
69183;SDS011;56291;53.960;27.550;2023-03-03T09:17:48;7.25;;;2.67;;
69183;SDS011;56291;53.960;27.550;2023-03-03T09:23:20;4.10;;;2.72;;
69183;SDS011;56291;53.960;27.550;2023-03-03T09:25:50;3.33;;;2.53;;
69183;SDS011;56291;53.960;27.550;2023-03-03T09:28:23;4.80;;;2.80;;
69183;SDS011;56291;53.960;27.550;2023-03-03T09:30:50;4.82;;;2.70;;
69183;SDS011;56291;53.960;27.550;2023-03-03T09:33:22;4.45;;;3.08;;
69183;SDS011;56291;53.960;27.550;2023-03-03T09:36:37;5.03;;;2.70;;
69183;SDS011;56291;53.960;27.550;2023-03-03T09:38:48;7.40;;;3.47;;
69183;SDS011;56291;53.960;27.550;2023-03-03T09:43:58;6.45;;;3.40;;
69183;SDS011;56291;53.960;27.550;2023-03-03T09:58:47;6.63;;;3.05;;
69183;SDS011;56291;53.960;27.550;2023-03-03T10:24:28;3.78;;;2.38;;
69183;SDS011;56291;53.960;27.550;2023-03-03T10:27:23;5.53;;;3.22;;
69183;SDS011;56291;53.960;27.550;2023-03-03T10:44:45;7.80;;;2.95;;
69183;SDS011;56291;53.960;27.550;2023-03-03T10:50:36;6.60;;;2.50;;
69183;SDS011;56291;53.960;27.550;2023-03-03T10:53:33;7.32;;;3.20;;
69183;SDS011;56291;53.960;27.550;2023-03-03T11:01:58;6.05;;;2.33;;
69183;SDS011;56291;53.960;27.550;2023-03-03T11:15:40;3.72;;;2.35;;
69183;SDS011;56291;53.960;27.550;2023-03-03T11:39:51;5.20;;;2.45;;
69183;SDS011;56291;53.960;27.550;2023-03-03T11:42:24;3.95;;;2.30;;
69183;SDS011;56291;53.960;27.550;2023-03-03T11:48:34;2.78;;;1.90;;
69183;SDS011;56291;53.960;27.550;2023-03-03T11:51:18;6.10;;;1.80;;
69183;SDS011;56291;53.960;27.550;2023-03-03T12:00:17;3.88;;;2.35;;
69183;SDS011;56291;53.960;27.550;2023-03-03T12:03:20;6.45;;;2.50;;
69183;SDS011;56291;53.960;27.550;2023-03-03T12:20:08;3.13;;;1.70;;
69183;SDS011;56291;53.960;27.550;2023-03-03T12:25:20;4.30;;;1.63;;
69183;SDS011;56291;53.960;27.550;2023-03-03T12:28:16;7.43;;;1.88;;
69183;SDS011;56291;53.960;27.550;2023-03-03T12:33:56;3.97;;;2.00;;
69183;SDS011;56291;53.960;27.550;2023-03-03T12:36:46;5.70;;;1.90;;
69183;SDS011;56291;53.960;27.550;2023-03-03T12:54:18;6.13;;;1.50;;
69183;SDS011;56291;53.960;27.550;2023-03-03T13:02:55;2.78;;;1.50;;
69183;SDS011;56291;53.960;27.550;2023-03-03T13:05:43;5.40;;;1.73;;
69183;SDS011;56291;53.960;27.550;2023-03-03T13:14:28;6.03;;;1.67;;
69183;SDS011;56291;53.960;27.550;2023-03-03T13:19:49;4.32;;;1.55;;
69183;SDS011;56291;53.960;27.550;2023-03-03T13:22:42;6.18;;;1.67;;
69183;SDS011;56291;53.960;27.550;2023-03-03T13:31:07;8.65;;;1.95;;
69183;SDS011;56291;53.960;27.550;2023-03-03T13:33:43;5.03;;;2.00;;
69183;SDS011;56291;53.960;27.550;2023-03-03T13:36:27;7.85;;;2.58;;
69183;SDS011;56291;53.960;27.550;2023-03-03T13:42:02;6.03;;;2.30;;
69183;SDS011;56291;53.960;27.550;2023-03-03T13:44:39;4.22;;;1.83;;
69183;SDS011;56291;53.960;27.550;2023-03-03T13:47:27;2.58;;;1.65;;
69183;SDS011;56291;53.960;27.550;2023-03-03T13:50:03;5.47;;;1.88;;
69183;SDS011;56291;53.960;27.550;2023-03-03T13:52:51;5.38;;;1.90;;
69183;SDS011;56291;53.960;27.550;2023-03-03T13:55:37;3.13;;;1.55;;
69183;SDS011;56291;53.960;27.550;2023-03-03T14:02:19;3.05;;;2.22;;
69183;SDS011;56291;53.960;27.550;2023-03-03T14:05:14;4.35;;;2.08;;
69183;SDS011;56291;53.960;27.550;2023-03-03T14:07:57;4.53;;;2.00;;
69183;SDS011;56291;53.960;27.550;2023-03-03T14:10:57;3.40;;;2.10;;
69183;SDS011;56291;53.960;27.550;2023-03-03T14:14:02;3.53;;;1.90;;
69183;SDS011;56291;53.960;27.550;2023-03-03T14:17:03;4.57;;;2.33;;
69183;SDS011;56291;53.960;27.550;2023-03-03T14:20:12;3.53;;;1.85;;
69183;SDS011;56291;53.960;27.550;2023-03-03T14:22:56;5.53;;;2.00;;
69183;SDS011;56291;53.960;27.550;2023-03-03T14:25:50;1.55;;;1.33;;
69183;SDS011;56291;53.960;27.550;2023-03-03T14:28:29;5.45;;;2.28;;
69183;SDS011;56291;53.960;27.550;2023-03-03T14:31:29;4.95;;;2.15;;
69183;SDS011;56291;53.960;27.550;2023-03-03T14:43:39;7.88;;;2.97;;
69183;SDS011;56291;53.960;27.550;2023-03-03T14:49:55;5.72;;;3.03;;
69183;SDS011;56291;53.960;27.550;2023-03-03T14:52:25;8.02;;;3.75;;
69183;SDS011;56291;53.960;27.550;2023-03-03T14:57:21;6.93;;;3.75;;
69183;SDS011;56291;53.960;27.550;2023-03-03T15:10:43;5.88;;;3.20;;
69183;SDS011;56291;53.960;27.550;2023-03-03T15:16:31;10.52;;;3.95;;
69183;SDS011;56291;53.960;27.550;2023-03-03T15:24:55;13.05;;;6.47;;
69183;SDS011;56291;53.960;27.550;2023-03-03T15:27:34;10.30;;;4.70;;
69183;SDS011;56291;53.960;27.550;2023-03-03T15:30:24;17.55;;;8.88;;
69183;SDS011;56291;53.960;27.550;2023-03-03T15:33:03;33.13;;;15.18;;
69183;SDS011;56291;53.960;27.550;2023-03-03T15:41:26;6.00;;;2.88;;
69183;SDS011;56291;53.960;27.550;2023-03-03T15:50:25;6.22;;;2.55;;
69183;SDS011;56291;53.960;27.550;2023-03-03T16:01:41;6.40;;;2.53;;
69183;SDS011;56291;53.960;27.550;2023-03-03T16:07:42;4.00;;;1.83;;
69183;SDS011;56291;53.960;27.550;2023-03-03T16:17:07;6.07;;;2.20;;
69183;SDS011;56291;53.960;27.550;2023-03-03T16:19:55;4.78;;;2.50;;
69183;SDS011;56291;53.960;27.550;2023-03-03T16:22:38;6.03;;;2.70;;
69183;SDS011;56291;53.960;27.550;2023-03-03T16:28:39;3.75;;;2.13;;
69183;SDS011;56291;53.960;27.550;2023-03-03T16:39:56;5.07;;;2.28;;
69183;SDS011;56291;53.960;27.550;2023-03-03T16:49:36;6.07;;;2.47;;
69183;SDS011;56291;53.960;27.550;2023-03-03T16:51:54;5.13;;;2.80;;
69183;SDS011;56291;53.960;27.550;2023-03-03T16:54:32;8.57;;;2.67;;
69183;SDS011;56291;53.960;27.550;2023-03-03T17:00:21;5.82;;;2.60;;
69183;SDS011;56291;53.960;27.550;2023-03-03T17:02:58;5.05;;;2.78;;
69183;SDS011;56291;53.960;27.550;2023-03-03T17:05:48;8.02;;;3.80;;
69183;SDS011;56291;53.960;27.550;2023-03-03T17:09:01;17.80;;;6.55;;
69183;SDS011;56291;53.960;27.550;2023-03-03T17:17:53;9.02;;;4.13;;
69183;SDS011;56291;53.960;27.550;2023-03-03T17:20:48;10.82;;;4.30;;
69183;SDS011;56291;53.960;27.550;2023-03-03T17:23:41;7.88;;;4.00;;
69183;SDS011;56291;53.960;27.550;2023-03-03T17:27:14;5.15;;;2.47;;
69183;SDS011;56291;53.960;27.550;2023-03-03T17:39:28;4.72;;;2.60;;
69183;SDS011;56291;53.960;27.550;2023-03-03T18:07:18;5.63;;;2.38;;
69183;SDS011;56291;53.960;27.550;2023-03-03T18:22:31;12.35;;;2.97;;
69183;SDS011;56291;53.960;27.550;2023-03-03T18:26:03;4.70;;;2.33;;
69183;SDS011;56291;53.960;27.550;2023-03-03T18:32:00;4.35;;;2.08;;
69183;SDS011;56291;53.960;27.550;2023-03-03T18:34:43;4.68;;;2.20;;
69183;SDS011;56291;53.960;27.550;2023-03-03T18:42:33;3.67;;;2.10;;
69183;SDS011;56291;53.960;27.550;2023-03-03T18:45:45;5.35;;;1.90;;
69183;SDS011;56291;53.960;27.550;2023-03-03T18:48:10;7.22;;;1.88;;
69183;SDS011;56291;53.960;27.550;2023-03-03T18:50:43;5.85;;;2.35;;
69183;SDS011;56291;53.960;27.550;2023-03-03T18:53:21;3.72;;;1.90;;
69183;SDS011;56291;53.960;27.550;2023-03-03T18:56:00;2.72;;;1.40;;
69183;SDS011;56291;53.960;27.550;2023-03-03T18:58:41;3.25;;;1.48;;
69183;SDS011;56291;53.960;27.550;2023-03-03T19:09:42;2.00;;;1.38;;
69183;SDS011;56291;53.960;27.550;2023-03-03T19:12:17;4.60;;;1.58;;
69183;SDS011;56291;53.960;27.550;2023-03-03T19:15:06;3.15;;;1.40;;
69183;SDS011;56291;53.960;27.550;2023-03-03T19:18:13;3.83;;;1.85;;
69183;SDS011;56291;53.960;27.550;2023-03-03T19:20:56;2.72;;;1.60;;
69183;SDS011;56291;53.960;27.550;2023-03-03T19:24:00;3.53;;;1.50;;
69183;SDS011;56291;53.960;27.550;2023-03-03T19:27:10;3.33;;;1.67;;
69183;SDS011;56291;53.960;27.550;2023-03-03T19:30:04;2.55;;;1.63;;
69183;SDS011;56291;53.960;27.550;2023-03-03T19:57:29;5.40;;;1.65;;
69183;SDS011;56291;53.960;27.550;2023-03-03T20:00:15;3.15;;;1.50;;
69183;SDS011;56291;53.960;27.550;2023-03-03T20:09:29;6.07;;;1.77;;
69183;SDS011;56291;53.960;27.550;2023-03-03T20:12:28;3.60;;;1.67;;
69183;SDS011;56291;53.960;27.550;2023-03-03T20:15:11;5.10;;;1.55;;
69183;SDS011;56291;53.960;27.550;2023-03-03T20:18:08;6.35;;;1.40;;
69183;SDS011;56291;53.960;27.550;2023-03-03T20:21:22;4.03;;;1.80;;
69183;SDS011;56291;53.960;27.550;2023-03-03T20:27:18;5.25;;;1.38;;
69183;SDS011;56291;53.960;27.550;2023-03-03T20:48:08;4.93;;;1.50;;
69183;SDS011;56291;53.960;27.550;2023-03-03T20:57:00;3.75;;;1.50;;
69183;SDS011;56291;53.960;27.550;2023-03-03T21:03:30;7.93;;;2.03;;
69183;SDS011;56291;53.960;27.550;2023-03-03T21:06:15;1.55;;;1.30;;
69183;SDS011;56291;53.960;27.550;2023-03-03T21:08:51;2.90;;;1.58;;
69183;SDS011;56291;53.960;27.550;2023-03-03T21:11:39;5.72;;;2.00;;
69183;SDS011;56291;53.960;27.550;2023-03-03T21:14:18;5.40;;;1.80;;
69183;SDS011;56291;53.960;27.550;2023-03-03T21:19:45;9.80;;;1.98;;
69183;SDS011;56291;53.960;27.550;2023-03-03T21:22:13;4.03;;;1.63;;
69183;SDS011;56291;53.960;27.550;2023-03-03T21:24:49;4.50;;;1.60;;
69183;SDS011;56291;53.960;27.550;2023-03-03T21:27:23;5.25;;;1.95;;
69183;SDS011;56291;53.960;27.550;2023-03-03T21:30:06;2.78;;;1.55;;
69183;SDS011;56291;53.960;27.550;2023-03-03T21:32:45;5.78;;;1.67;;
69183;SDS011;56291;53.960;27.550;2023-03-03T21:37:53;2.63;;;1.52;;
69183;SDS011;56291;53.960;27.550;2023-03-03T21:40:26;3.90;;;1.50;;
69183;SDS011;56291;53.960;27.550;2023-03-03T21:42:56;11.30;;;2.55;;
69183;SDS011;56291;53.960;27.550;2023-03-03T21:45:29;4.97;;;1.60;;
69183;SDS011;56291;53.960;27.550;2023-03-03T21:47:56;3.58;;;1.55;;
69183;SDS011;56291;53.960;27.550;2023-03-03T21:50:33;4.32;;;2.20;;
69183;SDS011;56291;53.960;27.550;2023-03-03T21:53:03;4.22;;;2.00;;
69183;SDS011;56291;53.960;27.550;2023-03-03T21:55:35;3.97;;;1.83;;
69183;SDS011;56291;53.960;27.550;2023-03-03T21:58:01;3.88;;;2.00;;
69183;SDS011;56291;53.960;27.550;2023-03-03T22:00:31;10.68;;;2.17;;
69183;SDS011;56291;53.960;27.550;2023-03-03T22:03:03;6.33;;;2.10;;
